Terminal Aerodrome Forecast
Issued by NWS

Home | Current Version | Previous Version | Text Only | Print | Product List | Glossary On
Versions: 1 2 3 4 5 6 7 8 9 10 11 12 13 14 15 16 17 18 19 20 21 22 23 24 25 26 27 28 29 30 31 32 33
000
FTUS41 KOKX 230911 AAA
TAFTEB
TAF AMD
KTEB 230911Z 2309/2406 00000KT 5SM -SHRA BR FEW050 BKN070
     FM231200 03004KT P6SM BKN070
     FM231700 09006KT P6SM SCT045 BKN070
     FM232000 12007KT P6SM SCT045 BKN070
     FM240100 12006KT P6SM VCSH SCT030 OVC045
     FM240300 12007KT P6SM VCSH OVC020=

USA.gov is the U.S. government's official web portal to all federal, state and local government web resources and services.